Time;durP1;ratioP1;P1;durP2;ratioP2;P2;SDS_P1;SDS_P2;PMS_P1;PMS_P2;Temp;Humidity;BMP_temperature;BMP_pressure;BME280_temperature;BME280_humidity;BME280_pressure;Samples;Min_cycle;Max_cycle;Signal;HPM_P1;HPM_P2
2022/12/21 00:01:27;;;;;;;48.17;32.65;;;;;;;8.51;100.00;94307.53;5031348;28;20044;-60
2022/12/21 00:03:55;;;;;;;54.97;32.95;;;;;;;8.48;100.00;94303.72;5026424;28;20049;-61
2022/12/21 00:06:22;;;;;;;53.47;32.90;;;;;;;8.48;100.00;94303.72;5032695;28;20515;-61
2022/12/21 00:08:49;;;;;;;54.67;31.58;;;;;;;8.49;100.00;93958.78;5034215;28;20480;-61
2022/12/21 00:11:15;;;;;;;49.88;33.97;;;;;;;8.44;100.00;94297.56;5032649;28;20114;-60
2022/12/21 00:13:41;;;;;;;57.17;37.13;;;;;;;8.45;100.00;93952.63;5033951;28;20061;-60
2022/12/21 00:16:10;;;;;;;61.78;34.65;;;;;;;8.47;100.00;93609.28;5030757;28;20045;-60
2022/12/21 00:18:37;;;;;;;63.05;35.90;;;;;;;8.52;100.00;93270.47;5034177;28;20115;-61
2022/12/21 00:21:17;;;;;;;58.10;35.85;;;;;;;8.52;100.00;93270.47;5032126;28;20045;-60
2022/12/21 00:23:45;;;;;;;62.22;36.60;;;;;;;8.47;100.00;93262.13;5034251;28;20350;-61
2022/12/21 00:26:11;;;;;;;59.22;36.22;;;;;;;8.46;100.00;93607.72;5032374;28;20040;-61
2022/12/21 00:28:37;;;;;;;68.20;36.60;;;;;;;8.37;100.00;93940.44;5033422;28;20076;-60
2022/12/21 00:31:14;;;;;;;66.18;37.33;;;;;;;8.36;100.00;93939.66;5031870;28;20079;-60
2022/12/21 00:33:40;;;;;;;69.30;36.22;;;;;;;8.41;100.00;93946.53;5033830;28;20389;-60
2022/12/21 00:36:07;;;;;;;60.20;35.65;;;;;;;8.42;100.00;93948.06;5031860;28;20040;-60
2022/12/21 00:38:35;;;;;;;67.82;39.03;;;;;;;8.46;100.00;93607.72;5033765;28;20071;-61
2022/12/21 00:41:04;;;;;;;65.80;38.20;;;;;;;8.44;100.00;93951.13;5032348;28;20034;-62
2022/12/21 00:43:31;;;;;;;67.32;38.67;;;;;;;8.39;100.00;93943.47;5033205;28;20034;-62
2022/12/21 00:45:57;;;;;;;75.32;37.22;;;;;;;8.39;100.00;93943.47;5015727;28;20072;-62
2022/12/21 00:48:23;;;;;;;71.97;41.08;;;;;;;8.42;100.00;93601.66;5014051;28;20022;-62
2022/12/21 00:50:48;;;;;;;76.22;38.42;;;;;;;8.39;100.00;93943.47;5011999;28;20116;-63
2022/12/21 00:53:15;;;;;;;72.32;39.72;;;;;;;8.36;100.00;93938.91;5013548;28;20079;-62
2022/12/21 00:55:41;;;;;;;78.43;41.55;;;;;;;8.30;100.00;93929.75;5012189;28;20537;-62
2022/12/21 00:58:07;;;;;;;83.32;46.00;;;;;;;8.30;100.00;94276.09;5013065;28;20030;-62
2022/12/21 01:00:32;;;;;;;77.20;40.72;;;;;;;8.29;100.00;93928.22;5012333;28;20092;-61
2022/12/21 01:02:57;;;;;;;83.88;40.05;;;;;;;8.25;100.00;93923.63;5013271;28;20030;-63
2022/12/21 01:05:23;;;;;;;86.18;41.70;;;;;;;8.23;100.00;93920.56;5013169;28;20025;-62
2022/12/21 01:07:48;;;;;;;84.18;42.40;;;;;;;8.17;100.00;94256.94;5012056;28;20040;-62
2022/12/21 01:10:14;;;;;;;90.30;44.00;;;;;;;8.23;100.00;93920.56;5013026;28;20362;-62
2022/12/21 01:12:40;;;;;;;97.63;44.08;;;;;;;8.23;100.00;93574.25;5011650;28;20072;-61
2022/12/21 01:15:06;;;;;;;94.32;44.22;;;;;;;8.20;100.00;93569.72;5020647;28;20087;-61
2022/12/21 01:17:33;;;;;;;92.20;41.55;;;;;;;8.20;100.00;93569.72;5031223;28;20048;-60
2022/12/21 01:19:58;;;;;;;95.13;46.75;;;;;;;8.17;100.00;93565.13;5032459;28;20014;-61
2022/12/21 01:22:23;;;;;;;100.38;43.22;;;;;;;8.17;100.00;93565.13;5031599;28;20051;-61
2022/12/21 01:24:48;;;;;;;92.13;45.65;;;;;;;8.25;100.00;92884.78;5032833;28;20079;-61
2022/12/21 01:27:14;;;;;;;94.30;44.78;;;;;;;8.29;100.00;92543.06;5030881;28;20033;-60
2022/12/21 01:29:39;;;;;;;95.53;44.45;;;;;;;8.25;100.00;92884.78;5033017;28;20500;-60
2022/12/21 01:32:05;;;;;;;97.40;43.22;;;;;;;8.19;100.00;93221.94;5030705;28;20477;-60
2022/12/21 01:34:30;;;;;;;98.45;46.78;;;;;;;8.12;100.00;93557.53;5032309;28;20044;-60
2022/12/21 01:36:55;;;;;;;111.03;48.08;;;;;;;8.07;100.00;94243.13;5031110;28;20103;-61
2022/12/21 01:39:21;;;;;;;95.95;49.88;;;;;;;8.08;100.00;94590.16;5032679;28;20025;-61
2022/12/21 01:41:46;;;;;;;100.63;46.75;;;;;;;8.08;100.00;94936.47;5030517;28;20135;-61
2022/12/21 01:44:48;;;;;;;114.65;49.53;;;;;;;8.12;100.00;94942.66;5031587;28;20056;-61
2022/12/21 01:47:20;;;;;;;106.35;49.55;;;;;;;8.16;100.00;94948.81;5011072;28;20038;-61
2022/12/21 01:49:56;;;;;;;109.68;45.58;;;;;;;8.16;100.00;94948.06;5012463;28;20076;-60
2022/12/21 01:52:22;;;;;;;111.07;49.88;;;;;;;8.13;100.00;95290.56;5011215;28;20125;-60
2022/12/21 01:54:54;;;;;;;119.63;48.17;;;;;;;8.13;100.00;95289.78;5012560;28;20117;-60
2022/12/21 01:57:21;;;;;;;101.18;47.28;;;;;;;8.12;100.00;95634.63;5010562;28;20042;-61
2022/12/21 01:59:49;;;;;;;105.78;47.67;;;;;;;8.13;100.00;95636.94;5012583;28;20113;-60
2022/12/21 02:02:22;;;;;;;122.97;52.90;;;;;;;8.14;100.00;95984.94;5010760;28;20049;-61
2022/12/21 02:04:51;;;;;;;107.97;48.90;;;;;;;8.14;100.00;95984.13;5011954;28;20025;-60
2022/12/21 02:07:17;;;;;;;117.55;49.40;;;;;;;8.13;100.00;96329.81;5010130;28;20048;-62
2022/12/21 02:09:43;;;;;;;121.90;53.47;;;;;;;8.17;100.00;95989.59;5012170;28;20033;-63
2022/12/21 02:12:13;;;;;;;111.10;51.72;;;;;;;8.21;100.00;95995.88;5010092;28;20037;-61
2022/12/21 02:14:41;;;;;;;112.97;53.83;;;;;;;8.22;100.00;95997.44;5012392;28;20029;-60
2022/12/21 02:17:40;;;;;;;114.80;49.85;;;;;;;8.17;100.00;96682.59;5010771;28;20042;-61
2022/12/21 02:20:37;;;;;;;103.07;50.42;;;;;;;8.08;100.00;97707.94;5010312;28;20099;-61
2022/12/21 02:23:24;;;;;;;117.20;52.63;;;;;;;7.96;100.00;99075.03;5007269;28;20133;-61
2022/12/21 02:26:11;;;;;;;127.22;53.05;;;;;;;8.04;100.00;99087.94;5010274;28;20033;-60
2022/12/21 02:29:05;;;;;;;116.28;50.90;;;;;;;8.07;100.00;99092.78;5011927;28;20034;-60
2022/12/21 02:31:38;;;;;;;125.53;51.22;;;;;;;8.05;100.00;99089.56;5010521;28;20045;-61
2022/12/21 02:34:23;;;;;;;128.07;53.25;;;;;;;8.06;100.00;99437.84;5011266;28;20052;-61
2022/12/21 02:37:11;;;;;;;116.28;53.17;;;;;;;8.05;100.00;99436.22;5010498;28;20128;-61
2022/12/21 02:39:58;;;;;;;128.18;55.30;;;;;;;8.02;100.00;99432.19;5011823;28;20022;-60
2022/12/21 02:45:27;;;;;;;136.18;56.30;;;;;;;7.97;100.00;99423.25;5011171;28;20068;-60
2022/12/21 02:48:12;;;;;;;124.25;55.65;;;;;;;8.01;100.00;98736.47;5010313;28;20501;-61
2022/12/21 02:50:42;;;;;;;122.50;56.50;;;;;;;7.97;100.00;98730.84;5009870;28;20107;-60
2022/12/21 02:53:22;;;;;;;126.47;56.97;;;;;;;8.05;100.00;98396.31;5012421;28;20026;-61
2022/12/21 02:55:47;;;;;;;116.75;52.88;;;;;;;8.05;100.00;98396.31;5009762;28;20500;-60
2022/12/21 02:58:21;;;;;;;126.75;56.13;;;;;;;8.01;100.00;98736.47;5009920;28;20036;-60
2022/12/21 03:00:52;;;;;;;109.13;52.25;;;;;;;7.98;100.00;99078.25;5008818;28;20033;-61
2022/12/21 03:03:50;;;;;;;125.78;54.15;;;;;;;7.94;100.00;99766.66;5011123;28;20105;-61
2022/12/21 03:06:27;;;;;;;102.65;49.47;;;;;;;7.87;100.00;100795.25;5009832;28;20405;-61
2022/12/21 03:09:20;;;;;;;96.25;48.25;;;;;;;7.83;100.00;101482.09;5011113;28;20036;-61
2022/12/21 03:11:48;;;;;;;99.40;45.50;;;;;;;7.83;100.00;101828.00;5009705;28;20386;-61
2022/12/21 03:14:27;;;;;;;88.55;41.70;;;;;;;7.80;100.00;102863.41;5011209;28;20548;-61
2022/12/21 03:16:59;;;;;;;82.53;39.08;;;;;;;7.73;100.00;103546.16;5009945;28;20531;-61
2022/12/21 03:19:34;;;;;;;72.80;40.42;;;;;;;7.70;100.00;104234.84;5009862;28;20017;-61
2022/12/21 03:22:10;;;;;;;71.03;38.45;;;;;;;7.60;100.00;105260.19;5009590;28;20070;-62
2022/12/21 03:24:46;;;;;;;68.57;39.60;;;;;;;7.60;100.00;106300.25;5011323;28;20030;-62
2022/12/21 03:27:17;;;;;;;69.05;38.42;;;;;;;7.54;100.00;107331.81;5008683;28;20049;-62
2022/12/21 03:30:11;;;;;;;75.15;39.63;;;;;;;7.45;100.00;108357.22;5011064;28;20485;-62
2022/12/21 03:32:45;;;;;;;76.57;37.97;;;;;;;7.44;100.00;108703.47;5008367;28;20052;-60
2022/12/21 03:35:26;;;;;;;72.03;34.80;;;;;;;7.36;100.00;109729.75;5010782;28;20026;-60
2022/12/21 03:37:55;;;;;;;74.68;40.08;;;;;;;7.35;100.00;110422.34;5009906;28;20042;-61
2022/12/21 03:40:24;;;;;;;70.25;37.55;;;;;;;7.25;100.00;111447.78;5010507;28;20022;-61
2022/12/21 03:43:19;;;;;;;77.95;38.17;;;;;;;7.27;100.00;111797.81;5009438;28;20038;-61
2022/12/21 03:45:50;;;;;;;72.97;39.50;;;;;;;7.27;100.00;112146.03;5008830;28;20054;-62
2022/12/21 03:48:26;;;;;;;78.75;36.97;;;;;;;7.20;100.00;112827.84;5010087;28;20061;-62
2022/12/21 03:50:53;;;;;;;72.93;38.25;;;;;;;7.19;100.00;113520.75;5009342;28;20100;-62
2022/12/21 03:53:38;;;;;;;77.10;37.10;;;;;;;7.18;100.00;113866.34;5010452;28;20384;-62
2022/12/21 03:56:07;;;;;;;80.95;39.50;;;;;;;7.21;100.00;113871.91;5008743;28;20053;-62
2022/12/21 03:58:35;;;;;;;79.22;38.63;;;;;;;7.21;100.00;113871.91;5014647;28;20162;-62
2022/12/21 04:01:39;;;;;;;81.85;40.03;;;;;;;7.14;100.00;114553.75;5028738;28;20412;-62
2022/12/21 04:04:15;;;;;;;74.05;34.65;;;;;;;7.15;100.00;114555.63;4968542;28;20122;-62
2022/12/21 04:06:42;;;;;;;84.00;39.10;;;;;;;7.10;100.00;114893.72;5021851;28;20400;-62
2022/12/21 04:09:08;;;;;;;89.20;40.83;;;;;;;7.03;100.00;115227.97;5030033;28;20112;-62
2022/12/21 04:14:19;;;;;;;92.82;41.78;;;;;;;6.99;100.00;115569.75;5030060;28;20091;-61
2022/12/21 04:16:45;;;;;;;91.20;41.92;;;;;;;7.01;100.00;115224.19;5029016;28;20042;-61
2022/12/21 04:21:54;;;;;;;100.75;41.65;;;;;;;7.09;100.00;114196.94;5028936;28;20539;-61
2022/12/21 04:29:46;;;;;;;110.25;41.40;;;;;;;7.10;100.00;113851.41;5030420;28;20048;-61
2022/12/21 04:32:12;;;;;;;121.30;43.55;;;;;;;7.08;100.00;113847.66;5031652;28;20041;-61
2022/12/21 04:34:37;;;;;;;118.68;44.53;;;;;;;7.06;100.00;113843.94;5033826;28;20021;-61
2022/12/21 04:39:46;;;;;;;150.25;51.80;;;;;;;7.01;100.00;114529.34;5032654;28;20041;-61
2022/12/21 04:42:12;;;;;;;157.15;52.13;;;;;;;7.07;100.00;113845.81;5012003;28;20034;-61
2022/12/21 04:44:37;;;;;;;171.60;53.75;;;;;;;6.99;100.00;114180.09;5033074;28;20104;-61
2022/12/21 04:47:02;;;;;;;171.15;51.40;;;;;;;6.85;100.00;114153.88;5031452;28;20041;-62
2022/12/21 04:49:28;;;;;;;184.57;55.40;;;;;;;7.05;100.00;113494.72;5033373;28;20033;-61
2022/12/21 04:51:53;;;;;;;168.95;57.53;;;;;;;7.13;100.00;112467.59;5031972;28;20033;-60
2022/12/21 04:54:19;;;;;;;202.50;60.45;;;;;;;7.15;100.00;112124.00;5033246;28;20025;-60
2022/12/21 04:56:44;;;;;;;180.82;62.83;;;;;;;7.18;100.00;111435.03;5032145;28;20492;-61
2022/12/21 04:59:09;;;;;;;217.88;62.78;;;;;;;7.19;100.00;111089.59;5033169;28;20041;-61
2022/12/21 05:01:35;;;;;;;206.43;65.70;;;;;;;7.15;100.00;111083.25;5031533;28;20037;-60
2022/12/21 05:04:00;;;;;;;201.02;58.53;;;;;;;7.11;100.00;111422.25;5032641;28;20061;-61
2022/12/21 05:06:25;;;;;;;211.60;66.13;;;;;;;7.18;100.00;110393.47;5031855;28;20033;-60
2022/12/21 05:08:51;;;;;;;231.70;61.85;;;;;;;7.19;100.00;110395.25;5031467;28;20025;-61
2022/12/21 05:11:19;;;;;;;221.70;59.90;;;;;;;7.14;100.00;110386.22;5011737;28;20533;-66
2022/12/21 05:13:46;;;;;;;194.65;60.95;;;;;;;7.16;100.00;110042.75;5021750;28;20032;-62
2022/12/21 05:16:15;;;;;;;235.88;62.72;;;;;;;7.15;100.00;110040.94;5030507;28;20041;-62
2022/12/21 05:18:40;;;;;;;139.73;47.17;;;;;;;7.16;100.00;110042.75;5033165;28;20025;-62
2022/12/21 05:21:06;;;;;;;177.40;61.53;;;;;;;7.15;100.00;110388.03;5026642;28;20049;-63
2022/12/21 05:23:31;;;;;;;157.98;54.72;;;;;;;7.12;100.00;110729.72;5021027;28;20452;-62
2022/12/21 05:25:57;;;;;;;175.73;59.75;;;;;;;7.15;100.00;110735.19;5015622;28;20080;-62
2022/12/21 05:28:22;;;;;;;158.98;56.28;;;;;;;7.15;100.00;111082.34;5027669;28;20041;-64
2022/12/21 05:30:47;;;;;;;166.27;57.05;;;;;;;7.14;100.00;111775.88;5030901;28;20096;-64
2022/12/21 05:33:13;;;;;;;151.30;55.17;;;;;;;7.10;100.00;112462.09;5028976;28;20033;-63
2022/12/21 05:35:39;;;;;;;139.60;55.13;;;;;;;7.12;100.00;112813.06;5021649;28;20025;-64
2022/12/21 05:38:05;;;;;;;146.02;52.65;;;;;;;7.14;100.00;112816.75;5032578;28;20033;-63
2022/12/21 05:40:30;;;;;;;155.68;53.90;;;;;;;7.13;100.00;113509.59;5031099;28;20025;-63
2022/12/21 05:42:56;;;;;;;152.88;52.08;;;;;;;7.14;100.00;113858.84;5031633;28;20036;-63
2022/12/21 05:45:21;;;;;;;147.93;53.67;;;;;;;7.08;100.00;114542.47;5032390;28;20049;-63
2022/12/21 05:47:47;;;;;;;144.15;53.60;;;;;;;7.14;100.00;114901.22;5030758;28;20037;-63
2022/12/21 05:50:12;;;;;;;134.10;52.17;;;;;;;7.14;100.00;115596.28;5031958;28;20040;-63
2022/12/21 05:52:38;;;;;;;131.10;51.13;;;;;;;7.11;100.00;115938.19;5030922;28;20038;-63
2022/12/21 05:55:04;;;;;;;120.47;52.47;;;;;;;7.17;100.00;115949.56;5031985;28;20017;-63
2022/12/21 05:57:30;;;;;;;114.72;48.35;;;;;;;7.19;100.00;115952.41;5030879;28;20131;-63
2022/12/21 05:59:55;;;;;;;110.28;45.75;;;;;;;7.19;100.00;116300.03;5032223;28;20477;-63
2022/12/21 06:02:20;;;;;;;90.50;45.13;;;;;;;7.21;100.00;116304.81;5030425;28;20033;-63
2022/12/21 06:04:46;;;;;;;91.90;41.75;;;;;;;7.24;100.00;116658.22;5032030;28;20032;-63
2022/12/21 06:07:11;;;;;;;83.47;39.05;;;;;;;7.13;100.00;117333.50;5030246;28;20037;-60
2022/12/21 06:09:37;;;;;;;69.25;38.58;;;;;;;7.07;100.00;118016.38;5031871;28;20034;-60
2022/12/21 06:12:02;;;;;;;71.45;36.55;;;;;;;7.15;100.00;119423.19;5030274;28;20053;-61
2022/12/21 06:14:27;;;;;;;69.93;36.22;;;;;;;7.14;100.00;120117.03;5031929;28;20024;-62
2022/12/21 06:16:53;;;;;;;79.03;36.67;;;;;;;7.11;100.00;121503.09;5030309;28;20074;-62
2022/12/21 06:19:18;;;;;;;78.15;37.05;;;;;;;7.10;100.00;122545.34;5031635;28;20022;-61
2022/12/21 06:21:43;;;;;;;66.00;35.42;;;;;;;7.03;100.00;123923.81;5030547;28;20037;-63
2022/12/21 06:24:09;;;;;;;83.97;40.17;;;;;;;6.92;100.00;125644.53;5030930;28;20025;-63
2022/12/21 06:26:34;;;;;;;78.60;35.10;;;;;;;6.87;100.00;127724.31;5030529;28;20060;-62
2022/12/21 06:28:59;;;;;;;62.17;34.10;;;;;;;6.74;100.00;130484.84;5031378;28;20025;-62
2022/12/21 06:31:25;;;;;;;65.63;32.90;;;;;;;6.57;100.00;133936.97;5029950;28;20041;-62
2022/12/21 06:33:50;;;;;;;70.28;34.33;;;;;;;6.47;100.00;137054.75;5031610;28;20091;-62
2022/12/21 06:36:16;;;;;;;72.60;33.92;;;;;;;6.35;100.00;140519.59;5029958;28;20041;-62
2022/12/21 06:38:41;;;;;;;84.32;37.28;;;;;;;6.27;100.00;142947.22;5031227;28;20067;-62
2022/12/21 06:41:09;;;;;;;91.20;37.88;;;;;;;6.22;100.00;144682.56;5029988;28;20041;-62
2022/12/21 06:43:36;;;;;;;77.53;36.00;;;;;;;6.19;100.00;146073.63;5031552;28;20029;-62
2022/12/21 06:46:07;;;;;;;86.35;36.85;;;;;;;6.18;100.00;146071.22;5029269;28;20129;-63
2022/12/21 06:48:34;;;;;;;81.90;36.63;;;;;;;6.14;100.00;146062.75;5031619;28;20029;-62
2022/12/21 06:51:05;;;;;;;78.72;34.72;;;;;;;6.14;100.00;145363.66;5029649;28;20488;-62
2022/12/21 06:53:33;;;;;;;78.70;34.65;;;;;;;6.14;100.00;144663.47;5031085;28;20040;-63
2022/12/21 06:56:07;;;;;;;77.95;32.83;;;;;;;6.11;100.00;143258.72;5029675;28;20128;-62
2022/12/21 06:58:33;;;;;;;68.57;31.20;;;;;;;6.13;100.00;142215.59;5031258;28;20032;-62
2022/12/21 07:01:07;;;;;;;74.82;30.58;;;;;;;6.09;100.00;141508.97;5029049;28;20052;-62
2022/12/21 07:03:33;;;;;;;58.70;27.13;;;;;;;6.06;100.00;140802.53;5031153;28;20108;-62
2022/12/21 07:05:59;;;;;;;74.80;31.65;;;;;;;6.06;100.00;139755.41;5029637;28;20037;-62
2022/12/21 07:08:24;;;;;;;66.22;31.42;;;;;;;6.08;100.00;138713.06;5030657;28;20370;-62
2022/12/21 07:10:54;;;;;;;70.32;30.02;;;;;;;6.10;100.00;136973.34;5029797;28;20029;-62
2022/12/21 07:13:19;;;;;;;65.50;28.88;;;;;;;6.15;100.00;135240.91;5030798;28;20037;-62
2022/12/21 07:15:46;;;;;;;65.18;27.27;;;;;;;6.19;100.00;133855.28;5027248;28;20021;-62
2022/12/21 07:18:11;;;;;;;60.67;25.17;;;;;;;6.17;100.00;132806.41;5025271;28;20051;-62
2022/12/21 07:20:37;;;;;;;64.30;27.77;;;;;;;6.17;100.00;132457.94;5029296;28;20469;-61
2022/12/21 07:23:02;;;;;;;47.10;22.58;;;;;;;6.11;100.00;132444.81;5018698;28;20504;-62
2022/12/21 07:25:27;;;;;;;62.05;28.05;;;;;;;6.05;100.00;132430.66;5011051;28;20393;-62
2022/12/21 07:27:55;;;;;;;68.75;27.17;;;;;;;6.08;100.00;131740.44;5009303;28;20042;-62
2022/12/21 07:30:21;;;;;;;55.10;26.08;;;;;;;6.07;100.00;131390.00;5010708;28;20453;-62
2022/12/21 07:32:46;;;;;;;61.78;26.55;;;;;;;6.10;100.00;131049.25;5009585;28;20038;-62
2022/12/21 07:35:12;;;;;;;71.15;28.20;;;;;;;6.11;100.00;130353.78;5022440;28;20381;-62
2022/12/21 07:37:37;;;;;;;58.60;29.02;;;;;;;6.14;100.00;129663.78;5028480;28;20349;-62
2022/12/21 07:40:04;;;;;;;49.58;26.08;;;;;;;6.07;100.00;129300.72;5030362;28;20025;-62
2022/12/21 07:42:31;;;;;;;50.17;24.65;;;;;;;6.18;100.00;128975.94;5029293;28;20037;-61
2022/12/21 07:44:57;;;;;;;51.80;24.63;;;;;;;6.19;100.00;128629.94;5029706;28;20263;-62
2022/12/21 07:47:22;;;;;;;53.05;23.65;;;;;;;6.20;100.00;128980.19;5028524;28;20037;-62
2022/12/21 07:49:47;;;;;;;50.10;21.38;;;;;;;6.15;100.00;129317.72;5029334;28;20021;-62
2022/12/21 07:52:12;;;;;;;55.97;24.23;;;;;;;6.08;100.00;130348.44;5027402;28;20041;-62
2022/12/21 07:54:38;;;;;;;57.08;24.83;;;;;;;6.03;100.00;131035.19;5029369;28;20032;-62
2022/12/21 07:57:03;;;;;;;53.13;22.25;;;;;;;6.01;100.00;131727.41;5027716;28;20030;-61
2022/12/21 07:59:28;;;;;;;54.65;22.13;;;;;;;5.96;100.00;132761.47;5029083;28;20196;-62
2022/12/21 08:01:55;;;;;;;49.95;22.73;;;;;;;5.93;100.00;133450.56;5025881;28;20049;-62
2022/12/21 08:04:20;;;;;;;48.90;20.42;;;;;;;5.88;100.00;134486.97;5015153;28;20100;-62
2022/12/21 08:06:45;;;;;;;44.00;18.08;;;;;;;5.84;100.00;135523.56;5012388;28;20057;-61
2022/12/21 08:09:11;;;;;;;39.65;18.23;;;;;;;5.79;100.00;136556.88;5028394;28;20499;-62
2022/12/21 08:11:36;;;;;;;52.15;21.65;;;;;;;5.75;100.00;137593.69;5032414;28;20053;-61
2022/12/21 08:14:01;;;;;;;46.33;20.48;;;;;;;5.76;100.00;138293.34;5033829;28;20025;-62
2022/12/21 08:16:27;;;;;;;48.65;24.85;;;;;;;5.79;100.00;138300.16;5032726;28;20025;-61
2022/12/21 08:18:55;;;;;;;66.53;27.02;;;;;;;5.88;100.00;137623.22;5033955;28;20029;-62
2022/12/21 08:21:20;;;;;;;61.47;20.90;;;;;;;5.98;100.00;135902.41;5032161;28;20465;-61
2022/12/21 08:23:47;;;;;;;50.13;20.33;;;;;;;6.06;100.00;134523.66;5033842;28;20029;-61
2022/12/21 08:26:13;;;;;;;43.67;21.48;;;;;;;6.09;100.00;133484.69;5033749;28;20022;-61
2022/12/21 08:28:39;;;;;;;52.60;23.63;;;;;;;6.15;100.00;132104.03;5031928;28;20048;-61
2022/12/21 08:31:07;;;;;;;53.03;24.30;;;;;;;6.22;100.00;130725.72;5032024;28;20045;-62
2022/12/21 08:33:33;;;;;;;48.78;23.60;;;;;;;6.26;100.00;129689.41;5033640;28;20033;-62
2022/12/21 08:35:58;;;;;;;50.05;21.90;;;;;;;6.31;100.00;128307.13;5031695;28;20071;-62
2022/12/21 08:38:24;;;;;;;59.60;21.58;;;;;;;6.32;100.00;127264.84;5033930;28;20029;-62
2022/12/21 08:40:49;;;;;;;62.40;22.52;;;;;;;6.37;100.00;126577.06;5032115;28;20112;-61
2022/12/21 08:43:15;;;;;;;49.80;21.58;;;;;;;6.44;100.00;125548.47;5033029;28;20403;-61
2022/12/21 08:45:40;;;;;;;53.08;22.13;;;;;;;6.48;100.00;124511.72;5031470;28;20404;-61
2022/12/21 08:48:05;;;;;;;50.92;20.08;;;;;;;6.56;100.00;123136.38;5032636;28;20468;-61
2022/12/21 08:50:31;;;;;;;61.08;23.17;;;;;;;6.59;100.00;122446.69;5031147;28;20046;-61
2022/12/21 08:52:57;;;;;;;60.60;23.15;;;;;;;6.63;100.00;121411.31;5032290;28;20029;-61
2022/12/21 08:55:22;;;;;;;59.38;23.50;;;;;;;6.69;100.00;120725.72;5032265;28;20037;-61
2022/12/21 08:57:47;;;;;;;56.20;20.98;;;;;;;6.72;100.00;120036.22;5030681;28;20045;-61
2022/12/21 09:00:13;;;;;;;52.45;23.40;;;;;;;6.73;100.00;119343.81;5031899;28;20013;-61
2022/12/21 09:02:38;;;;;;;44.20;21.90;;;;;;;6.75;100.00;119000.09;5032075;28;20046;-61
2022/12/21 09:05:05;;;;;;;47.63;21.42;;;;;;;6.78;100.00;118657.34;5033165;28;20025;-61
2022/12/21 09:07:30;;;;;;;49.25;23.67;;;;;;;6.82;100.00;117970.88;5031767;28;20068;-61
2022/12/21 09:09:56;;;;;;;41.72;22.02;;;;;;;6.87;100.00;117632.00;5033039;28;20472;-61
2022/12/21 09:12:21;;;;;;;50.03;22.73;;;;;;;6.91;100.00;117292.09;5032112;28;20095;-61
2022/12/21 09:14:46;;;;;;;45.67;22.33;;;;;;;6.98;100.00;116610.41;5033008;28;20088;-61
2022/12/21 09:17:12;;;;;;;60.72;23.83;;;;;;;7.07;100.00;115930.56;5031401;28;20037;-61
2022/12/21 09:19:37;;;;;;;49.45;22.52;;;;;;;6.96;100.00;116259.03;5033082;28;20421;-61
2022/12/21 09:22:02;;;;;;;53.58;23.23;;;;;;;7.11;100.00;116981.03;5031169;28;20056;-61
2022/12/21 09:24:28;;;;;;;45.08;23.13;;;;;;;7.11;100.00;118024.13;5032925;28;20071;-62
2022/12/21 09:26:53;;;;;;;55.75;26.98;;;;;;;7.02;100.00;119746.50;5031894;28;20087;-61
2022/12/21 09:29:19;;;;;;;60.65;28.85;;;;;;;7.18;100.00;120819.94;5032487;28;20030;-61
2022/12/21 09:31:45;;;;;;;56.03;28.88;;;;;;;7.54;100.00;119496.69;5031437;28;20034;-61
2022/12/21 09:34:11;;;;;;;43.15;25.75;;;;;;;8.13;100.00;116126.41;5032651;28;20480;-62
2022/12/21 09:36:36;;;;;;;45.03;25.10;;;;;;;8.31;100.00;116855.31;5031228;28;20034;-62
2022/12/21 09:39:01;;;;;;;40.15;21.92;;;;;;;8.15;100.00;123098.47;5032640;28;20026;-62
2022/12/21 09:41:33;;;;;;;34.28;19.73;;;;;;;8.05;100.00;134602.53;5031275;28;20094;-61
2022/12/21 09:44:20;;;;;;;43.35;21.90;;;;;;;7.87;100.00;149974.97;5031681;28;20104;-61
2022/12/21 09:46:48;;;;;;;35.97;19.65;;;;;;;7.69;100.00;162576.06;5031426;28;20121;-61
2022/12/21 09:49:21;;;;;;;40.70;20.65;;;;;;;7.47;100.00;162519.47;5032255;28;20025;-61
2022/12/21 09:51:55;;;;;;;50.35;29.65;;;;;;;7.39;100.00;162496.59;5030765;28;20194;-61
2022/12/21 09:54:27;;;;;;;45.70;27.45;;;;;;;7.44;100.00;162510.06;5031905;28;20025;-61
2022/12/21 09:56:56;;;;;;;52.60;27.00;;;;;;;7.53;100.00;162532.94;5030497;28;20067;-61
2022/12/21 09:59:22;;;;;;;46.58;25.38;;;;;;;7.56;100.00;162542.38;5031825;28;20045;-61
2022/12/21 10:02:05;;;;;;;52.33;28.00;;;;;;;7.67;100.00;162569.31;5030455;28;20061;-61
2022/12/21 10:05:00;;;;;;;41.17;26.13;;;;;;;7.85;100.00;162617.84;5031918;28;20429;-62
2022/12/21 10:07:40;;;;;;;41.92;25.67;;;;;;;7.93;100.00;162639.38;5030592;28;20358;-61
2022/12/21 10:10:23;;;;;;;41.85;23.65;;;;;;;8.18;100.00;162702.75;5031573;28;20025;-61
2022/12/21 10:12:57;;;;;;;43.22;26.63;;;;;;;8.38;100.00;162756.66;5030467;28;20037;-62
2022/12/21 10:15:52;;;;;;;33.97;22.40;;;;;;;8.51;100.00;162790.41;5032328;28;20030;-62
2022/12/21 10:18:20;;;;;;;43.63;21.27;;;;;;;8.59;100.00;162809.28;5030755;28;20072;-62
2022/12/21 10:21:04;;;;;;;33.13;19.08;;;;;;;8.53;100.00;162794.44;5030473;28;20091;-61
2022/12/21 10:23:38;;;;;;;33.80;20.10;;;;;;;8.48;100.00;162780.97;5032180;28;20026;-62
2022/12/21 10:26:07;;;;;;;39.40;23.85;;;;;;;8.66;100.00;162828.16;5030124;28;20052;-62
2022/12/21 10:28:38;;;;;;;40.08;21.08;;;;;;;8.66;100.00;162828.16;5031072;28;20025;-62
2022/12/21 10:31:06;;;;;;;30.90;21.00;;;;;;;8.61;100.00;162814.63;5029845;28;20045;-61
2022/12/21 10:33:43;;;;;;;40.38;23.60;;;;;;;8.34;100.00;162744.50;5031163;28;20523;-61
2022/12/21 10:36:19;;;;;;;40.63;24.90;;;;;;;8.09;100.00;162679.81;5023916;28;20037;-61
2022/12/21 10:38:45;;;;;;;52.45;33.03;;;;;;;7.83;100.00;162612.44;5020750;28;20610;-62
2022/12/21 10:41:18;;;;;;;49.95;34.33;;;;;;;7.82;100.00;162608.44;5029321;28;20049;-62
2022/12/21 10:43:48;;;;;;;50.90;32.65;;;;;;;7.80;100.00;162604.34;5031470;28;20041;-62
2022/12/21 10:46:15;;;;;;;61.70;39.40;;;;;;;7.75;100.00;162590.88;5029556;28;20037;-62
2022/12/21 10:48:40;;;;;;;62.92;35.95;;;;;;;7.78;100.00;162599.00;5031199;28;20383;-62
2022/12/21 10:51:28;;;;;;;71.60;40.47;;;;;;;7.73;100.00;162586.88;5029136;28;20045;-62
2022/12/21 10:54:03;;;;;;;60.90;40.10;;;;;;;7.75;100.00;162590.88;5031341;28;20030;-62
2022/12/21 10:56:31;;;;;;;72.15;40.38;;;;;;;7.82;100.00;162609.75;5029652;28;20041;-61
2022/12/21 10:59:12;;;;;;;85.20;43.47;;;;;;;7.89;100.00;162628.63;5030853;28;20027;-62
2022/12/21 11:01:37;;;;;;;69.88;40.47;;;;;;;7.83;100.00;162612.44;5029711;28;20463;-62
2022/12/21 11:04:32;;;;;;;60.17;36.97;;;;;;;7.88;100.00;162625.91;5030463;28;20079;-62
2022/12/21 11:07:18;;;;;;;67.28;40.45;;;;;;;7.84;100.00;162613.78;5028888;28;20061;-62
2022/12/21 11:09:43;;;;;;;65.00;44.45;;;;;;;7.82;100.00;162609.75;5030509;28;20105;-61
2022/12/21 11:12:17;;;;;;;68.50;38.22;;;;;;;7.82;100.00;162609.75;5023357;28;20038;-62
2022/12/21 11:14:42;;;;;;;77.10;38.08;;;;;;;7.81;100.00;162607.06;5027176;28;20029;-62
2022/12/21 11:17:26;;;;;;;69.60;37.75;;;;;;;7.80;100.00;162604.34;5022045;28;20099;-62
2022/12/21 11:20:07;;;;;;;57.38;35.38;;;;;;;7.78;100.00;162599.00;5010842;28;20040;-61
2022/12/21 11:22:33;;;;;;;61.17;38.88;;;;;;;7.78;100.00;162599.00;5009700;28;20037;-62
2022/12/21 11:25:00;;;;;;;68.32;37.30;;;;;;;7.72;100.00;162582.78;5013866;28;20075;-62
2022/12/21 11:27:32;;;;;;;69.38;36.70;;;;;;;7.66;100.00;162566.63;5018184;28;20554;-61
2022/12/21 11:29:59;;;;;;;88.05;44.85;;;;;;;7.70;100.00;162577.44;5029905;28;20037;-61
2022/12/21 11:32:26;;;;;;;67.38;39.10;;;;;;;7.71;100.00;162580.09;5029356;28;20037;-61
2022/12/21 11:34:53;;;;;;;66.88;37.28;;;;;;;7.71;100.00;162581.47;5018050;28;20488;-61
2022/12/21 11:37:42;;;;;;;57.42;36.25;;;;;;;7.78;100.00;162599.00;5019827;28;20041;-61